createdAt,value
2023-03-16T00:02:29.697Z,53.16
2023-03-16T00:07:31.746Z,53.31
2023-03-16T00:12:34.945Z,53.73
2023-03-16T00:17:36.887Z,53.64
2023-03-16T00:22:38.739Z,53.78
2023-03-16T00:27:41.406Z,53.83
2023-03-16T00:32:43.428Z,54.12
2023-03-16T00:37:45.342Z,54.52
2023-03-16T00:42:47.205Z,54.70
2023-03-16T00:47:49.412Z,54.96
2023-03-16T00:52:53.767Z,54.86
2023-03-16T00:57:55.676Z,54.73
2023-03-16T01:02:57.561Z,54.38
2023-03-16T01:08:02.580Z,54.73
2023-03-16T01:13:04.474Z,55.40
2023-03-16T01:18:06.577Z,55.33
2023-03-16T01:23:08.415Z,55.32
2023-03-16T01:28:10.661Z,55.10
2023-03-16T01:33:12.737Z,55.01
2023-03-16T01:38:15.343Z,54.45
2023-03-16T01:43:24.148Z,54.38
2023-03-16T01:48:27.537Z,55.67
2023-03-16T01:53:30.262Z,55.18
2023-03-16T01:58:32.396Z,54.15
2023-03-16T02:03:35.148Z,54.04
2023-03-16T02:08:49.197Z,53.56
2023-03-16T02:13:52.842Z,54.41
2023-03-16T02:18:55.515Z,53.79
2023-03-16T02:23:57.771Z,54.00
2023-03-16T02:29:17.168Z,53.67
2023-03-16T02:34:21.629Z,53.60
2023-03-16T02:39:23.814Z,54.04
2023-03-16T02:44:34.035Z,53.95
2023-03-16T02:49:41.536Z,54.07
2023-03-16T02:54:43.612Z,53.87
2023-03-16T02:59:45.950Z,53.79
2023-03-16T03:04:47.872Z,53.92
2023-03-16T03:09:49.706Z,53.64
2023-03-16T03:14:51.558Z,53.64
2023-03-16T03:20:00.013Z,53.51
2023-03-16T03:25:02.916Z,54.04
2023-03-16T03:30:07.183Z,55.33
2023-03-16T03:35:12.390Z,53.82
2023-03-16T03:40:16.632Z,53.99
2023-03-16T03:45:21.565Z,54.02
2023-03-16T03:50:23.593Z,53.84
2023-03-16T03:55:32.965Z,54.29
2023-03-16T04:00:36.017Z,54.02
2023-03-16T04:05:38.024Z,54.35
2023-03-16T04:10:39.961Z,53.90
2023-03-16T04:15:42.413Z,54.30
2023-03-16T04:20:55.919Z,54.21
2023-03-16T04:26:00.182Z,54.32
2023-03-16T04:31:04.725Z,54.01
2023-03-16T04:36:12.103Z,54.04
2023-03-16T04:41:14.728Z,54.71
2023-03-16T04:46:29.600Z,54.68
2023-03-16T04:51:34.305Z,54.23
2023-03-16T04:56:43.074Z,54.40
2023-03-16T05:02:04.173Z,54.35
2023-03-16T05:07:06.877Z,54.43
2023-03-16T05:12:12.933Z,54.30
2023-03-16T05:17:15.376Z,54.30
2023-03-16T05:22:20.061Z,54.41
2023-03-16T05:27:54.471Z,54.55
2023-03-16T05:33:18.343Z,54.15
2023-03-16T05:38:25.905Z,53.92
2023-03-16T05:43:31.692Z,53.79
2023-03-16T05:48:35.901Z,53.51
2023-03-16T05:53:38.818Z,53.53
2023-03-16T05:58:48.318Z,55.58
2023-03-16T06:03:52.170Z,53.98
2023-03-16T06:08:57.819Z,53.29
2023-03-16T06:14:01.900Z,53.47
2023-03-16T06:19:03.754Z,53.21
2023-03-16T06:24:09.269Z,53.39
2023-03-16T06:29:11.877Z,52.66
2023-03-16T06:34:15.148Z,53.29
2023-03-16T06:39:18.516Z,53.05
2023-03-16T06:44:23.657Z,53.07
2023-03-16T06:49:33.505Z,52.61
2023-03-16T06:54:37.780Z,52.22
2023-03-16T06:59:40.680Z,51.75
2023-03-16T07:04:43.643Z,52.12
2023-03-16T07:09:45.992Z,51.58
2023-03-16T07:14:50.808Z,51.18
2023-03-16T07:19:57.172Z,50.92
2023-03-16T07:24:59.215Z,50.65
2023-03-16T07:30:05.455Z,50.67
2023-03-16T07:35:11.584Z,50.43
2023-03-16T07:40:15.114Z,49.73
2023-03-16T07:45:18.112Z,49.82
2023-03-16T07:50:22.352Z,49.96
2023-03-16T07:55:24.693Z,48.39
2023-03-16T08:00:28.322Z,48.26
2023-03-16T08:05:32.675Z,48.20
2023-03-16T08:10:37.553Z,48.16
2023-03-16T08:15:58.534Z,47.83
2023-03-16T08:21:11.928Z,47.47
2023-03-16T08:26:13.952Z,47.28
2023-03-16T08:31:16.360Z,46.42
2023-03-16T08:36:23.985Z,45.46
2023-03-16T08:41:30.952Z,45.17
2023-03-16T08:46:36.793Z,44.83
2023-03-16T08:51:39.357Z,45.04
2023-03-16T08:56:41.185Z,45.00
2023-03-16T09:01:43.638Z,45.16
2023-03-16T09:06:46.499Z,44.80
2023-03-16T09:11:49.948Z,44.73
2023-03-16T09:16:52.392Z,44.30
2023-03-16T09:21:54.199Z,44.13
2023-03-16T09:26:56.203Z,43.72
2023-03-16T09:31:58.116Z,44.04
2023-03-16T09:37:00.588Z,44.14
2023-03-16T09:42:08.549Z,43.27
2023-03-16T09:47:13.305Z,41.87
2023-03-16T09:52:34.187Z,42.35
2023-03-16T09:57:41.224Z,41.99
2023-03-16T10:03:21.582Z,41.49
2023-03-16T10:08:25.741Z,40.73
2023-03-16T10:13:36.798Z,40.62
2023-03-16T10:18:46.154Z,40.61
2023-03-16T10:23:51.314Z,40.65
2023-03-16T10:28:55.064Z,40.68
2023-03-16T10:34:05.317Z,40.42
2023-03-16T10:39:14.361Z,40.17
2023-03-16T10:44:22.791Z,39.24
2023-03-16T10:49:27.195Z,38.74
2023-03-16T10:54:40.090Z,38.45
2023-03-16T10:59:49.766Z,37.46
2023-03-16T11:04:53.216Z,36.99
2023-03-16T11:09:56.328Z,37.23
2023-03-16T11:15:25.185Z,36.58
2023-03-16T11:20:30.833Z,36.61
2023-03-16T11:25:43.522Z,35.85
2023-03-16T11:31:04.806Z,36.27
2023-03-16T11:36:39.056Z,36.22
2023-03-16T11:42:12.710Z,34.42
2023-03-16T11:47:31.006Z,33.80
2023-03-16T11:53:00.781Z,34.76
2023-03-16T11:58:14.824Z,34.52
2023-03-16T12:03:42.791Z,33.29
2023-03-16T12:08:54.770Z,33.44
2023-03-16T12:14:00.500Z,32.69
2023-03-16T12:19:06.763Z,33.17
2023-03-16T12:24:27.006Z,33.63
2023-03-16T12:29:43.937Z,32.29
2023-03-16T12:35:14.914Z,32.84
2023-03-16T12:40:35.665Z,32.32
2023-03-16T12:45:43.295Z,32.49
2023-03-16T12:50:54.883Z,32.14
2023-03-16T12:55:58.064Z,31.17
2023-03-16T13:01:00.465Z,31.10
2023-03-16T13:06:03.618Z,30.55
2023-03-16T13:11:14.794Z,30.50
2023-03-16T13:16:30.770Z,30.70
2023-03-16T13:21:38.661Z,29.73
2023-03-16T13:26:49.508Z,28.99
2023-03-16T13:31:52.810Z,29.57
2023-03-16T13:36:57.235Z,29.31
2023-03-16T13:42:02.017Z,29.54
2023-03-16T13:47:05.814Z,29.54
2023-03-16T13:52:14.877Z,30.06
2023-03-16T13:57:19.891Z,29.56
2023-03-16T14:02:23.301Z,29.95
2023-03-16T14:07:26.365Z,29.68
2023-03-16T14:12:28.199Z,29.98
2023-03-16T14:17:30.152Z,30.34
2023-03-16T14:22:37.784Z,30.21
2023-03-16T14:27:39.600Z,29.82
2023-03-16T14:32:42.088Z,29.95
2023-03-16T14:37:45.065Z,29.76
2023-03-16T14:42:46.964Z,30.14
2023-03-16T14:47:50.898Z,30.18
2023-03-16T14:52:55.997Z,30.44
2023-03-16T14:57:58.161Z,30.84
2023-03-16T15:03:11.135Z,31.16
2023-03-16T15:08:19.134Z,31.76
2023-03-16T15:13:37.186Z,32.28
2023-03-16T15:18:39.965Z,32.64
2023-03-16T15:23:43.898Z,33.01
2023-03-16T15:28:46.175Z,33.51
2023-03-16T15:33:48.050Z,33.55
2023-03-16T15:38:53.583Z,34.10
2023-03-16T15:44:00.763Z,34.26
2023-03-16T15:49:02.631Z,34.41
2023-03-16T15:54:07.087Z,34.70
2023-03-16T15:59:17.032Z,34.55
2023-03-16T16:04:22.843Z,35.83
2023-03-16T16:09:24.890Z,35.35
2023-03-16T16:14:26.913Z,35.31
2023-03-16T16:19:30.120Z,36.01
2023-03-16T16:24:33.588Z,36.06
2023-03-16T16:29:35.935Z,36.31
2023-03-16T16:34:37.781Z,36.20
2023-03-16T16:39:40.609Z,36.96
2023-03-16T16:44:43.574Z,36.90
2023-03-16T16:49:45.549Z,37.02
2023-03-16T16:54:47.436Z,36.99
2023-03-16T16:59:49.567Z,37.10
2023-03-16T17:04:51.857Z,36.98
2023-03-16T17:09:53.755Z,37.25
2023-03-16T17:14:55.592Z,37.87
2023-03-16T17:19:57.482Z,37.58
2023-03-16T17:24:59.562Z,37.78
2023-03-16T17:30:01.980Z,37.69
2023-03-16T17:35:14.745Z,37.97
2023-03-16T17:40:23.219Z,37.98
2023-03-16T17:45:29.893Z,37.70
2023-03-16T17:50:34.407Z,37.49
2023-03-16T17:55:41.021Z,37.85
2023-03-16T18:00:47.323Z,37.91
2023-03-16T18:05:50.124Z,38.02
2023-03-16T18:11:04.428Z,38.15
2023-03-16T18:16:08.218Z,38.52
2023-03-16T18:21:21.966Z,38.42
2023-03-16T18:26:24.870Z,38.67
2023-03-16T18:31:28.537Z,38.78
2023-03-16T18:36:33.779Z,38.71
2023-03-16T18:41:36.310Z,38.81
2023-03-16T18:46:39.289Z,38.53
2023-03-16T18:51:43.211Z,39.21
2023-03-16T18:56:45.267Z,39.11
2023-03-16T19:01:47.881Z,39.82
2023-03-16T19:06:53.575Z,39.38
2023-03-16T19:11:55.899Z,39.41
2023-03-16T19:16:58.041Z,39.45
2023-03-16T19:22:12.799Z,40.11
2023-03-16T19:27:22.945Z,40.19
2023-03-16T19:32:24.828Z,39.82
2023-03-16T19:37:30.150Z,39.80
2023-03-16T19:42:37.492Z,40.42
2023-03-16T19:47:39.909Z,40.06
2023-03-16T19:52:42.036Z,40.64
2023-03-16T19:57:45.471Z,40.14
2023-03-16T20:02:48.391Z,40.16
2023-03-16T20:07:50.799Z,40.32
2023-03-16T20:12:58.654Z,40.07
2023-03-16T20:18:00.520Z,40.25
2023-03-16T20:23:02.976Z,39.94
2023-03-16T20:28:14.465Z,40.12
2023-03-16T20:33:25.259Z,40.41
2023-03-16T20:38:27.136Z,39.83
2023-03-16T20:43:31.705Z,39.80
2023-03-16T20:48:34.288Z,39.71
2023-03-16T20:53:36.217Z,39.93
2023-03-16T20:58:38.140Z,39.97
2023-03-16T21:03:39.956Z,40.15
2023-03-16T21:08:41.833Z,40.38
2023-03-16T21:13:43.680Z,39.74
2023-03-16T21:18:45.707Z,39.51
2023-03-16T21:23:48.225Z,39.68
2023-03-16T21:28:57.608Z,39.58
2023-03-16T21:34:00.716Z,39.01
2023-03-16T21:39:06.473Z,39.01
2023-03-16T21:44:09.176Z,39.27
2023-03-16T21:49:12.257Z,39.61
2023-03-16T21:54:15.366Z,39.13
2023-03-16T21:59:17.453Z,39.06
2023-03-16T22:04:19.391Z,39.45
2023-03-16T22:09:22.691Z,39.51
2023-03-16T22:14:24.694Z,39.11
2023-03-16T22:19:27.491Z,39.84
2023-03-16T22:24:30.956Z,39.80
2023-03-16T22:29:36.615Z,39.70
2023-03-16T22:34:46.689Z,39.63
2023-03-16T22:39:49.704Z,39.76
2023-03-16T22:44:51.839Z,39.67
2023-03-16T22:49:54.521Z,39.70
2023-03-16T22:54:58.711Z,39.31
2023-03-16T23:00:07.128Z,39.36
2023-03-16T23:05:20.989Z,39.33
2023-03-16T23:10:25.725Z,39.43
2023-03-16T23:15:30.282Z,39.10
2023-03-16T23:20:32.806Z,38.79
2023-03-16T23:25:35.420Z,38.91
2023-03-16T23:30:37.581Z,38.58
2023-03-16T23:35:41.319Z,38.71
2023-03-16T23:40:43.354Z,38.23
2023-03-16T23:45:46.855Z,38.83
2023-03-16T23:50:52.254Z,38.16
2023-03-16T23:55:54.124Z,37.96
